createdAt,value
2018-12-14T00:04:08.488Z,4.30
2018-12-14T00:08:20.691Z,4.30
2018-12-14T00:12:32.949Z,4.20
2018-12-14T00:16:45.065Z,4.10
2018-12-14T00:20:57.069Z,4.20
2018-12-14T00:25:09.191Z,4.20
2018-12-14T00:29:21.158Z,4.30
2018-12-14T00:33:33.567Z,4.20
2018-12-14T00:37:45.580Z,4.20
2018-12-14T00:41:57.658Z,4.20
2018-12-14T00:46:09.383Z,4.30
2018-12-14T00:50:21.568Z,4.30
2018-12-14T00:54:35.975Z,4.30
2018-12-14T00:58:51.335Z,4.20
2018-12-14T01:03:03.471Z,4.30
2018-12-14T01:07:15.519Z,4.30
2018-12-14T01:11:27.651Z,4.30
2018-12-14T01:15:39.762Z,4.20
2018-12-14T01:19:51.874Z,4.20
2018-12-14T01:24:03.564Z,4.20
2018-12-14T01:28:15.448Z,4.30
2018-12-14T01:32:27.331Z,4.30
2018-12-14T01:36:39.299Z,4.20
2018-12-14T01:40:51.481Z,4.20
2018-12-14T01:45:03.623Z,4.30
2018-12-14T01:49:15.707Z,4.30
2018-12-14T01:53:27.818Z,4.30
2018-12-14T01:57:39.724Z,4.30
2018-12-14T02:01:51.563Z,4.20
2018-12-14T02:06:03.432Z,4.30
2018-12-14T02:10:15.427Z,4.30
2018-12-14T02:14:27.443Z,4.30
2018-12-14T02:18:39.530Z,4.30
2018-12-14T02:22:51.196Z,4.30
2018-12-14T02:27:03.185Z,4.30
2018-12-14T02:31:15.084Z,4.40
2018-12-14T02:35:26.843Z,4.40
2018-12-14T02:39:38.992Z,4.30
2018-12-14T02:43:51.258Z,4.30
2018-12-14T02:48:03.279Z,4.30
2018-12-14T02:52:15.484Z,4.30
2018-12-14T02:56:27.607Z,4.40
2018-12-14T03:00:39.795Z,4.30
2018-12-14T03:04:51.847Z,4.30
2018-12-14T03:09:04.146Z,4.30
2018-12-14T03:13:16.238Z,4.30
2018-12-14T03:17:28.633Z,4.30
2018-12-14T03:21:41.050Z,4.30
2018-12-14T03:25:53.164Z,4.30
2018-12-14T03:30:05.318Z,4.30
2018-12-14T03:34:17.099Z,4.30
2018-12-14T03:38:29.220Z,4.40
2018-12-14T03:42:41.319Z,4.30
2018-12-14T03:46:53.300Z,4.20
2018-12-14T03:51:05.652Z,4.30
2018-12-14T03:55:17.728Z,4.20
2018-12-14T03:59:29.741Z,4.20
2018-12-14T04:03:41.748Z,4.20
2018-12-14T04:07:53.936Z,4.20
2018-12-14T04:12:05.960Z,4.20
2018-12-14T04:16:18.057Z,4.20
2018-12-14T04:20:30.308Z,4.20
2018-12-14T04:24:42.470Z,4.20
2018-12-14T04:28:54.062Z,4.20
2018-12-14T04:33:05.847Z,4.20
2018-12-14T04:37:17.701Z,4.20
2018-12-14T04:41:29.839Z,4.00
2018-12-14T04:45:41.886Z,4.00
2018-12-14T04:49:53.567Z,4.10
2018-12-14T04:54:05.231Z,4.10
2018-12-14T04:58:17.168Z,4.10
2018-12-14T05:02:29.277Z,3.90
2018-12-14T05:06:41.298Z,3.90
2018-12-14T05:10:53.441Z,4.00
2018-12-14T05:15:05.136Z,4.10
2018-12-14T05:19:16.931Z,4.00
2018-12-14T05:23:28.776Z,4.00
2018-12-14T05:27:40.751Z,4.00
2018-12-14T05:31:52.748Z,4.00
2018-12-14T05:36:04.739Z,4.00
2018-12-14T05:40:16.847Z,3.90
2018-12-14T05:44:28.484Z,3.80
2018-12-14T05:48:40.190Z,3.90
2018-12-14T05:52:52.160Z,3.90
2018-12-14T05:57:04.272Z,3.90
2018-12-14T06:01:16.385Z,3.90
2018-12-14T06:05:28.464Z,3.90
2018-12-14T06:09:40.600Z,3.80
2018-12-14T06:13:52.586Z,3.90
2018-12-14T06:18:04.845Z,4.00
2018-12-14T06:22:16.945Z,3.90
2018-12-14T06:26:30.001Z,3.80
2018-12-14T06:30:42.609Z,3.80
2018-12-14T06:34:54.202Z,3.80
2018-12-14T06:39:06.687Z,3.90
2018-12-14T06:43:18.427Z,3.80
2018-12-14T06:47:31.166Z,3.70
2018-12-14T06:51:43.356Z,3.70
2018-12-14T06:55:55.314Z,3.80
2018-12-14T07:00:07.574Z,3.80
2018-12-14T07:04:19.529Z,3.80
2018-12-14T07:08:31.637Z,3.70
2018-12-14T07:12:43.766Z,3.70
2018-12-14T07:16:55.992Z,3.70
2018-12-14T07:21:08.192Z,3.80
2018-12-14T07:25:20.179Z,3.80
2018-12-14T07:29:32.257Z,3.70
2018-12-14T07:33:44.294Z,3.70
2018-12-14T07:37:56.378Z,3.70
2018-12-14T07:42:08.068Z,3.70
2018-12-14T07:46:20.542Z,3.60
2018-12-14T07:50:32.346Z,3.60
2018-12-14T07:54:44.058Z,3.70
2018-12-14T07:58:56.420Z,3.70
2018-12-14T08:03:08.886Z,3.50
2018-12-14T08:07:20.994Z,3.50
2018-12-14T08:11:33.048Z,3.50
2018-12-14T08:15:46.592Z,3.60
2018-12-14T08:19:58.503Z,3.60
2018-12-14T08:24:10.547Z,3.50
2018-12-14T08:28:22.527Z,3.50
2018-12-14T08:32:34.626Z,3.50
2018-12-14T08:36:46.240Z,3.60
2018-12-14T08:40:58.375Z,3.60
2018-12-14T08:45:10.484Z,3.60
2018-12-14T08:49:22.173Z,3.70
2018-12-14T08:53:34.243Z,3.80
2018-12-14T08:57:46.043Z,3.80
2018-12-14T09:01:58.203Z,3.90
2018-12-14T09:06:10.166Z,3.80
2018-12-14T09:10:22.327Z,3.80
2018-12-14T09:14:34.274Z,3.90
2018-12-14T09:18:45.906Z,3.90
2018-12-14T09:22:57.697Z,3.90
2018-12-14T09:27:09.684Z,3.90
2018-12-14T09:31:21.623Z,3.90
2018-12-14T09:35:33.401Z,3.90
2018-12-14T09:39:45.404Z,3.90
2018-12-14T09:43:57.491Z,4.00
2018-12-14T09:48:09.598Z,4.00
2018-12-14T09:52:21.725Z,4.00
2018-12-14T09:56:33.806Z,4.00
2018-12-14T10:00:45.606Z,4.10
2018-12-14T10:04:57.320Z,4.10
2018-12-14T10:09:09.788Z,4.20
2018-12-14T10:13:22.097Z,4.20
2018-12-14T10:17:33.795Z,4.20
2018-12-14T10:21:46.006Z,4.30
2018-12-14T10:25:57.700Z,4.40
2018-12-14T10:30:10.008Z,4.40
2018-12-14T10:34:21.758Z,4.30
2018-12-14T10:38:33.820Z,4.40
2018-12-14T10:42:45.838Z,4.50
2018-12-14T10:46:57.796Z,4.40
2018-12-14T10:51:09.919Z,4.40
2018-12-14T10:55:21.543Z,4.40
2018-12-14T10:59:33.343Z,4.40
2018-12-14T11:03:45.037Z,4.40
2018-12-14T11:07:56.796Z,4.40
2018-12-14T11:12:08.964Z,4.40
2018-12-14T11:16:20.923Z,4.50
2018-12-14T11:20:33.010Z,4.60
2018-12-14T11:24:45.028Z,4.70
2018-12-14T11:28:57.045Z,4.70
2018-12-14T11:33:09.278Z,4.60
2018-12-14T11:37:21.425Z,4.60
2018-12-14T11:41:33.579Z,4.80
2018-12-14T11:45:45.571Z,4.90
2018-12-14T11:49:57.691Z,4.90
2018-12-14T11:54:09.787Z,4.80
2018-12-14T11:58:21.406Z,4.70
2018-12-14T12:02:33.123Z,4.80
2018-12-14T12:06:44.938Z,4.80
2018-12-14T12:10:56.899Z,4.80
2018-12-14T12:15:09.738Z,4.80
2018-12-14T12:19:21.750Z,4.80
2018-12-14T12:23:34.359Z,4.80
2018-12-14T12:27:46.071Z,4.80
2018-12-14T12:31:57.943Z,5.00
2018-12-14T12:36:09.990Z,5.00
2018-12-14T12:40:22.059Z,5.10
2018-12-14T12:44:34.062Z,5.10
2018-12-14T12:48:46.252Z,5.20
2018-12-14T12:52:57.906Z,5.20
2018-12-14T12:57:09.608Z,5.10
2018-12-14T13:01:21.470Z,5.10
2018-12-14T13:05:35.046Z,5.10
2018-12-14T13:09:47.120Z,5.10
2018-12-14T13:13:59.032Z,5.10
2018-12-14T13:18:11.113Z,5.10
2018-12-14T13:22:22.798Z,5.20
2018-12-14T13:26:34.678Z,5.20
2018-12-14T13:30:46.787Z,5.30
2018-12-14T13:34:58.546Z,5.30
2018-12-14T13:39:10.678Z,5.40
2018-12-14T13:43:22.729Z,5.40
2018-12-14T13:47:34.666Z,5.50
2018-12-14T13:51:46.763Z,5.50
2018-12-14T13:55:58.767Z,5.60
2018-12-14T14:00:10.499Z,5.60
2018-12-14T14:04:22.359Z,5.60
2018-12-14T14:08:34.015Z,5.60
2018-12-14T14:12:49.722Z,5.70
2018-12-14T14:17:05.172Z,5.70
2018-12-14T14:21:17.007Z,5.70
2018-12-14T14:25:28.996Z,5.70
2018-12-14T14:29:41.116Z,5.70
2018-12-14T14:33:56.593Z,5.70
2018-12-14T14:38:08.335Z,5.70
2018-12-14T14:42:23.912Z,5.80
2018-12-14T14:46:39.545Z,5.80
2018-12-14T14:50:56.250Z,5.80
2018-12-14T14:55:08.235Z,5.80
2018-12-14T14:59:23.888Z,5.80
2018-12-14T15:03:38.731Z,5.80
2018-12-14T15:07:51.873Z,5.90
2018-12-14T15:12:06.897Z,5.90
2018-12-14T15:16:22.543Z,5.90
2018-12-14T15:20:38.300Z,5.90
2018-12-14T15:24:51.501Z,6.00
2018-12-14T15:29:06.820Z,6.00
2018-12-14T15:33:22.538Z,6.00
2018-12-14T15:37:36.192Z,6.00
2018-12-14T15:41:51.752Z,6.00
2018-12-14T15:46:08.515Z,5.90
2018-12-14T15:50:20.746Z,5.90
2018-12-14T15:54:32.487Z,5.90
2018-12-14T15:58:44.406Z,5.90
2018-12-14T16:02:56.616Z,5.90
2018-12-14T16:07:08.623Z,6.00
2018-12-14T16:11:21.510Z,6.00
2018-12-14T16:15:33.385Z,6.10
2018-12-14T16:19:45.304Z,6.00
2018-12-14T16:23:57.213Z,5.90
2018-12-14T16:28:09.316Z,5.90
2018-12-14T16:32:21.363Z,5.70
2018-12-14T16:36:33.471Z,5.70
2018-12-14T16:40:45.592Z,5.70
2018-12-14T16:44:57.681Z,5.60
2018-12-14T16:49:09.262Z,5.50
2018-12-14T16:53:21.089Z,5.50
2018-12-14T16:57:33.007Z,5.50
2018-12-14T17:01:45.151Z,5.60
2018-12-14T17:06:00.416Z,5.40
2018-12-14T17:10:12.536Z,5.40
2018-12-14T17:14:24.396Z,5.40
2018-12-14T17:18:36.530Z,5.50
2018-12-14T17:22:48.523Z,5.50
2018-12-14T17:27:00.750Z,5.40
2018-12-14T17:31:12.848Z,5.40
2018-12-14T17:35:24.941Z,5.40
2018-12-14T17:39:37.139Z,5.50
2018-12-14T17:43:49.143Z,5.90
2018-12-14T17:48:00.723Z,6.20
2018-12-14T17:52:12.802Z,6.50
2018-12-14T17:56:24.520Z,6.60
2018-12-14T18:00:37.738Z,6.70
2018-12-14T18:04:49.780Z,6.80
2018-12-14T18:09:01.311Z,6.80
2018-12-14T18:13:13.182Z,6.90
2018-12-14T18:17:24.993Z,7.00
2018-12-14T18:21:37.356Z,7.00
2018-12-14T18:25:49.243Z,7.00
2018-12-14T18:30:01.523Z,7.10
2018-12-14T18:34:13.503Z,7.10
2018-12-14T18:38:25.533Z,7.10
2018-12-14T18:42:37.762Z,7.20
2018-12-14T18:46:49.840Z,7.20
2018-12-14T18:51:01.503Z,7.30
2018-12-14T18:55:13.244Z,7.30
2018-12-14T18:59:25.563Z,7.30
2018-12-14T19:03:37.455Z,7.40
2018-12-14T19:07:49.375Z,7.40
2018-12-14T19:12:01.582Z,7.40
2018-12-14T19:16:13.687Z,7.50
2018-12-14T19:20:25.310Z,7.50
2018-12-14T19:24:37.126Z,7.50
2018-12-14T19:28:49.010Z,7.60
2018-12-14T19:33:01.098Z,7.60
2018-12-14T19:37:13.115Z,7.60
2018-12-14T19:41:25.443Z,7.70
2018-12-14T19:45:37.536Z,7.70
2018-12-14T19:49:49.858Z,7.70
2018-12-14T19:54:02.280Z,7.70
2018-12-14T19:58:14.168Z,7.80
2018-12-14T20:02:26.424Z,7.80
2018-12-14T20:06:38.380Z,7.80
2018-12-14T20:10:50.585Z,7.80
2018-12-14T20:15:02.750Z,7.80
2018-12-14T20:19:14.800Z,7.80
2018-12-14T20:23:26.351Z,7.80
2018-12-14T20:27:38.059Z,7.80
2018-12-14T20:31:49.908Z,7.80
2018-12-14T20:36:01.979Z,7.70
2018-12-14T20:40:13.635Z,7.60
2018-12-14T20:44:25.388Z,7.50
2018-12-14T20:48:37.200Z,7.40
2018-12-14T20:52:49.208Z,7.30
2018-12-14T20:57:01.320Z,7.30
2018-12-14T21:01:13.436Z,7.20
2018-12-14T21:05:25.548Z,7.10
2018-12-14T21:09:37.743Z,7.00
2018-12-14T21:13:49.270Z,7.10
2018-12-14T21:18:00.988Z,7.00
2018-12-14T21:22:15.519Z,7.00
2018-12-14T21:26:27.675Z,6.90
2018-12-14T21:30:39.710Z,6.90
2018-12-14T21:34:51.721Z,6.90
2018-12-14T21:39:03.303Z,7.00
2018-12-14T21:43:15.243Z,6.90
2018-12-14T21:47:27.060Z,7.00
2018-12-14T21:51:39.151Z,6.90
2018-12-14T21:55:51.178Z,6.90
2018-12-14T22:00:03.706Z,6.80
2018-12-14T22:04:15.661Z,6.90
2018-12-14T22:08:27.619Z,6.90
2018-12-14T22:12:39.694Z,6.90
2018-12-14T22:16:51.737Z,6.90
2018-12-14T22:21:03.798Z,6.90
2018-12-14T22:25:15.807Z,7.00
2018-12-14T22:29:28.132Z,7.00
2018-12-14T22:33:39.742Z,7.00
2018-12-14T22:37:52.348Z,7.00
2018-12-14T22:42:04.155Z,7.10
2018-12-14T22:46:15.891Z,7.00
2018-12-14T22:50:27.682Z,7.10
2018-12-14T22:54:39.637Z,7.30
2018-12-14T22:58:51.747Z,7.20
2018-12-14T23:03:05.376Z,7.30
2018-12-14T23:07:17.034Z,7.20
2018-12-14T23:11:31.275Z,7.30
2018-12-14T23:15:46.208Z,7.30
2018-12-14T23:19:58.026Z,7.30
2018-12-14T23:24:09.815Z,7.40
2018-12-14T23:28:21.730Z,7.40
2018-12-14T23:32:33.848Z,7.50
2018-12-14T23:36:46.400Z,7.60
2018-12-14T23:40:58.278Z,7.70
2018-12-14T23:45:10.359Z,7.80
2018-12-14T23:49:22.279Z,7.90
2018-12-14T23:53:34.436Z,7.80
2018-12-14T23:57:46.490Z,7.90
